sensor_id;sensor_type;location;lat;lon;timestamp;P1;durP1;ratioP1;P2;durP2;ratioP2
55732;SDS011;41637;52.364;9.910;2023-04-07T00:00:33;14.90;;;10.50;;
55732;SDS011;41637;52.364;9.910;2023-04-07T00:02:59;15.50;;;10.20;;
55732;SDS011;41637;52.364;9.910;2023-04-07T00:05:27;14.20;;;9.70;;
55732;SDS011;41637;52.364;9.910;2023-04-07T00:07:54;13.10;;;9.30;;
55732;SDS011;41637;52.364;9.910;2023-04-07T00:10:23;14.50;;;9.90;;
55732;SDS011;41637;52.364;9.910;2023-04-07T00:12:50;13.60;;;9.30;;
55732;SDS011;41637;52.364;9.910;2023-04-07T00:15:17;15.30;;;10.10;;
55732;SDS011;41637;52.364;9.910;2023-04-07T00:17:44;14.30;;;10.70;;
55732;SDS011;41637;52.364;9.910;2023-04-07T00:20:11;18.90;;;10.80;;
55732;SDS011;41637;52.364;9.910;2023-04-07T00:22:37;13.70;;;9.90;;
55732;SDS011;41637;52.364;9.910;2023-04-07T00:25:05;13.20;;;10.20;;
55732;SDS011;41637;52.364;9.910;2023-04-07T00:27:32;13.40;;;10.20;;
55732;SDS011;41637;52.364;9.910;2023-04-07T00:29:58;14.60;;;9.80;;
55732;SDS011;41637;52.364;9.910;2023-04-07T00:32:25;14.00;;;10.60;;
55732;SDS011;41637;52.364;9.910;2023-04-07T00:34:52;13.00;;;10.60;;
55732;SDS011;41637;52.364;9.910;2023-04-07T00:37:18;16.70;;;10.70;;
55732;SDS011;41637;52.364;9.910;2023-04-07T00:39:45;16.20;;;11.20;;
55732;SDS011;41637;52.364;9.910;2023-04-07T00:42:12;13.70;;;10.60;;
55732;SDS011;41637;52.364;9.910;2023-04-07T00:44:38;16.40;;;11.10;;
55732;SDS011;41637;52.364;9.910;2023-04-07T00:47:05;15.10;;;11.40;;
55732;SDS011;41637;52.364;9.910;2023-04-07T00:49:32;16.50;;;11.30;;
55732;SDS011;41637;52.364;9.910;2023-04-07T00:51:59;14.20;;;11.60;;
55732;SDS011;41637;52.364;9.910;2023-04-07T00:54:26;15.20;;;10.90;;
55732;SDS011;41637;52.364;9.910;2023-04-07T00:56:55;15.50;;;11.10;;
55732;SDS011;41637;52.364;9.910;2023-04-07T00:59:22;13.30;;;10.80;;
55732;SDS011;41637;52.364;9.910;2023-04-07T01:05:15;15.30;;;11.40;;
55732;SDS011;41637;52.364;9.910;2023-04-07T01:08:00;14.30;;;11.30;;
55732;SDS011;41637;52.364;9.910;2023-04-07T01:11:16;16.20;;;11.80;;
55732;SDS011;41637;52.364;9.910;2023-04-07T01:13:42;16.10;;;11.90;;
55732;SDS011;41637;52.364;9.910;2023-04-07T01:16:15;14.90;;;11.10;;
55732;SDS011;41637;52.364;9.910;2023-04-07T01:18:50;17.20;;;12.10;;
55732;SDS011;41637;52.364;9.910;2023-04-07T01:21:19;16.30;;;12.00;;
55732;SDS011;41637;52.364;9.910;2023-04-07T01:26:37;15.70;;;12.40;;
55732;SDS011;41637;52.364;9.910;2023-04-07T01:32:06;15.90;;;12.20;;
55732;SDS011;41637;52.364;9.910;2023-04-07T01:34:37;18.10;;;13.00;;
55732;SDS011;41637;52.364;9.910;2023-04-07T01:37:04;16.60;;;12.40;;
55732;SDS011;41637;52.364;9.910;2023-04-07T01:39:32;16.00;;;12.50;;
55732;SDS011;41637;52.364;9.910;2023-04-07T01:42:01;16.20;;;12.90;;
55732;SDS011;41637;52.364;9.910;2023-04-07T01:44:31;17.30;;;12.90;;
55732;SDS011;41637;52.364;9.910;2023-04-07T01:46:58;16.40;;;12.70;;
55732;SDS011;41637;52.364;9.910;2023-04-07T01:49:26;18.00;;;12.80;;
55732;SDS011;41637;52.364;9.910;2023-04-07T01:51:55;15.80;;;12.80;;
55732;SDS011;41637;52.364;9.910;2023-04-07T01:54:23;17.90;;;13.10;;
55732;SDS011;41637;52.364;9.910;2023-04-07T01:56:51;16.80;;;12.30;;
55732;SDS011;41637;52.364;9.910;2023-04-07T01:59:18;17.60;;;12.90;;
55732;SDS011;41637;52.364;9.910;2023-04-07T02:01:44;18.50;;;12.70;;
55732;SDS011;41637;52.364;9.910;2023-04-07T02:04:15;16.30;;;12.60;;
55732;SDS011;41637;52.364;9.910;2023-04-07T02:07:08;17.70;;;13.30;;
55732;SDS011;41637;52.364;9.910;2023-04-07T02:09:40;17.30;;;12.70;;
55732;SDS011;41637;52.364;9.910;2023-04-07T02:12:09;16.40;;;13.50;;
55732;SDS011;41637;52.364;9.910;2023-04-07T02:14:38;16.50;;;12.80;;
55732;SDS011;41637;52.364;9.910;2023-04-07T02:17:05;19.50;;;13.00;;
55732;SDS011;41637;52.364;9.910;2023-04-07T02:19:32;17.60;;;13.80;;
55732;SDS011;41637;52.364;9.910;2023-04-07T02:22:04;17.80;;;13.40;;
55732;SDS011;41637;52.364;9.910;2023-04-07T02:24:32;17.50;;;13.60;;
55732;SDS011;41637;52.364;9.910;2023-04-07T02:26:58;17.40;;;13.30;;
55732;SDS011;41637;52.364;9.910;2023-04-07T02:29:27;18.80;;;13.50;;
55732;SDS011;41637;52.364;9.910;2023-04-07T02:31:54;16.60;;;13.40;;
55732;SDS011;41637;52.364;9.910;2023-04-07T02:34:21;17.00;;;13.20;;
55732;SDS011;41637;52.364;9.910;2023-04-07T02:36:48;20.10;;;13.10;;
55732;SDS011;41637;52.364;9.910;2023-04-07T02:39:14;18.80;;;13.90;;
55732;SDS011;41637;52.364;9.910;2023-04-07T02:41:41;18.10;;;13.60;;
55732;SDS011;41637;52.364;9.910;2023-04-07T02:44:08;18.20;;;13.70;;
55732;SDS011;41637;52.364;9.910;2023-04-07T02:46:35;17.90;;;13.70;;
55732;SDS011;41637;52.364;9.910;2023-04-07T02:49:02;19.40;;;13.90;;
55732;SDS011;41637;52.364;9.910;2023-04-07T02:51:28;18.30;;;13.70;;
55732;SDS011;41637;52.364;9.910;2023-04-07T02:53:55;17.30;;;13.20;;
55732;SDS011;41637;52.364;9.910;2023-04-07T02:56:22;18.40;;;13.70;;
55732;SDS011;41637;52.364;9.910;2023-04-07T02:58:48;17.90;;;13.50;;
55732;SDS011;41637;52.364;9.910;2023-04-07T03:01:15;18.20;;;14.20;;
55732;SDS011;41637;52.364;9.910;2023-04-07T03:03:42;18.10;;;13.90;;
55732;SDS011;41637;52.364;9.910;2023-04-07T03:06:10;18.00;;;13.30;;
55732;SDS011;41637;52.364;9.910;2023-04-07T03:08:37;18.20;;;13.80;;
55732;SDS011;41637;52.364;9.910;2023-04-07T03:11:03;18.00;;;14.20;;
55732;SDS011;41637;52.364;9.910;2023-04-07T03:13:30;19.20;;;13.80;;
55732;SDS011;41637;52.364;9.910;2023-04-07T03:15:57;19.70;;;14.30;;
55732;SDS011;41637;52.364;9.910;2023-04-07T03:18:24;20.60;;;15.30;;
55732;SDS011;41637;52.364;9.910;2023-04-07T03:20:50;18.60;;;14.40;;
55732;SDS011;41637;52.364;9.910;2023-04-07T03:23:18;19.50;;;14.70;;
55732;SDS011;41637;52.364;9.910;2023-04-07T03:25:45;21.30;;;15.00;;
55732;SDS011;41637;52.364;9.910;2023-04-07T03:28:13;21.30;;;15.70;;
55732;SDS011;41637;52.364;9.910;2023-04-07T03:30:40;22.50;;;15.70;;
55732;SDS011;41637;52.364;9.910;2023-04-07T03:33:07;20.90;;;16.20;;
55732;SDS011;41637;52.364;9.910;2023-04-07T03:35:34;23.10;;;15.30;;
55732;SDS011;41637;52.364;9.910;2023-04-07T03:38:01;22.50;;;15.90;;
55732;SDS011;41637;52.364;9.910;2023-04-07T03:40:27;20.50;;;15.60;;
55732;SDS011;41637;52.364;9.910;2023-04-07T03:42:54;21.80;;;15.90;;
55732;SDS011;41637;52.364;9.910;2023-04-07T03:45:21;20.20;;;15.60;;
55732;SDS011;41637;52.364;9.910;2023-04-07T03:47:48;22.30;;;16.20;;
55732;SDS011;41637;52.364;9.910;2023-04-07T03:50:14;21.90;;;15.20;;
55732;SDS011;41637;52.364;9.910;2023-04-07T03:52:41;22.30;;;15.70;;
55732;SDS011;41637;52.364;9.910;2023-04-07T03:55:08;22.70;;;16.40;;
55732;SDS011;41637;52.364;9.910;2023-04-07T03:57:35;20.70;;;15.20;;
55732;SDS011;41637;52.364;9.910;2023-04-07T04:00:01;21.50;;;15.50;;
55732;SDS011;41637;52.364;9.910;2023-04-07T04:02:30;20.60;;;15.20;;
55732;SDS011;41637;52.364;9.910;2023-04-07T04:04:57;21.00;;;15.20;;
55732;SDS011;41637;52.364;9.910;2023-04-07T04:07:24;21.20;;;15.80;;
55732;SDS011;41637;52.364;9.910;2023-04-07T04:09:51;19.70;;;15.20;;
55732;SDS011;41637;52.364;9.910;2023-04-07T04:12:18;20.50;;;16.10;;
55732;SDS011;41637;52.364;9.910;2023-04-07T04:14:44;18.50;;;14.90;;
55732;SDS011;41637;52.364;9.910;2023-04-07T04:17:11;20.30;;;15.70;;
55732;SDS011;41637;52.364;9.910;2023-04-07T04:19:38;19.70;;;15.30;;
55732;SDS011;41637;52.364;9.910;2023-04-07T04:22:05;19.40;;;15.30;;
55732;SDS011;41637;52.364;9.910;2023-04-07T04:24:31;19.50;;;15.20;;
55732;SDS011;41637;52.364;9.910;2023-04-07T04:26:58;18.00;;;15.30;;
55732;SDS011;41637;52.364;9.910;2023-04-07T04:29:26;19.20;;;15.80;;
55732;SDS011;41637;52.364;9.910;2023-04-07T04:31:53;18.50;;;15.20;;
55732;SDS011;41637;52.364;9.910;2023-04-07T04:34:20;19.90;;;15.20;;
55732;SDS011;41637;52.364;9.910;2023-04-07T04:36:46;19.80;;;15.20;;
55732;SDS011;41637;52.364;9.910;2023-04-07T04:39:14;20.70;;;15.20;;
55732;SDS011;41637;52.364;9.910;2023-04-07T04:41:41;22.50;;;16.00;;
55732;SDS011;41637;52.364;9.910;2023-04-07T04:44:07;18.60;;;14.70;;
55732;SDS011;41637;52.364;9.910;2023-04-07T04:46:35;20.60;;;15.60;;
55732;SDS011;41637;52.364;9.910;2023-04-07T04:49:02;20.00;;;15.10;;
55732;SDS011;41637;52.364;9.910;2023-04-07T04:51:28;19.80;;;15.50;;
55732;SDS011;41637;52.364;9.910;2023-04-07T04:53:56;20.00;;;15.80;;
55732;SDS011;41637;52.364;9.910;2023-04-07T04:56:22;21.20;;;16.00;;
55732;SDS011;41637;52.364;9.910;2023-04-07T04:58:49;19.40;;;16.20;;
55732;SDS011;41637;52.364;9.910;2023-04-07T05:01:16;19.00;;;14.50;;
55732;SDS011;41637;52.364;9.910;2023-04-07T05:03:42;18.40;;;15.20;;
55732;SDS011;41637;52.364;9.910;2023-04-07T05:06:09;20.00;;;16.00;;
55732;SDS011;41637;52.364;9.910;2023-04-07T05:08:36;20.50;;;14.70;;
55732;SDS011;41637;52.364;9.910;2023-04-07T05:11:02;18.10;;;14.70;;
55732;SDS011;41637;52.364;9.910;2023-04-07T05:13:29;20.60;;;15.60;;
55732;SDS011;41637;52.364;9.910;2023-04-07T05:15:56;19.40;;;15.10;;
55732;SDS011;41637;52.364;9.910;2023-04-07T05:18:23;19.70;;;15.20;;
55732;SDS011;41637;52.364;9.910;2023-04-07T05:20:49;17.50;;;14.20;;
55732;SDS011;41637;52.364;9.910;2023-04-07T05:23:16;18.30;;;14.60;;
55732;SDS011;41637;52.364;9.910;2023-04-07T05:25:42;19.30;;;14.10;;
55732;SDS011;41637;52.364;9.910;2023-04-07T05:28:09;18.30;;;14.60;;
55732;SDS011;41637;52.364;9.910;2023-04-07T05:30:36;17.00;;;14.10;;
55732;SDS011;41637;52.364;9.910;2023-04-07T05:33:02;18.10;;;14.00;;
55732;SDS011;41637;52.364;9.910;2023-04-07T05:35:29;20.70;;;14.60;;
55732;SDS011;41637;52.364;9.910;2023-04-07T05:37:56;18.10;;;14.20;;
55732;SDS011;41637;52.364;9.910;2023-04-07T05:40:23;17.50;;;14.60;;
55732;SDS011;41637;52.364;9.910;2023-04-07T05:42:50;18.50;;;14.10;;
55732;SDS011;41637;52.364;9.910;2023-04-07T05:45:16;17.70;;;13.10;;
55732;SDS011;41637;52.364;9.910;2023-04-07T05:47:43;17.40;;;13.60;;
55732;SDS011;41637;52.364;9.910;2023-04-07T05:50:12;16.00;;;13.10;;
55732;SDS011;41637;52.364;9.910;2023-04-07T05:52:39;17.50;;;13.90;;
55732;SDS011;41637;52.364;9.910;2023-04-07T05:55:06;16.50;;;13.20;;
55732;SDS011;41637;52.364;9.910;2023-04-07T05:57:33;17.20;;;13.40;;
55732;SDS011;41637;52.364;9.910;2023-04-07T06:00:00;16.30;;;12.90;;
55732;SDS011;41637;52.364;9.910;2023-04-07T06:02:27;16.10;;;12.80;;
55732;SDS011;41637;52.364;9.910;2023-04-07T06:04:54;17.50;;;12.90;;
55732;SDS011;41637;52.364;9.910;2023-04-07T06:07:21;14.00;;;11.90;;
55732;SDS011;41637;52.364;9.910;2023-04-07T06:09:47;16.40;;;13.10;;
55732;SDS011;41637;52.364;9.910;2023-04-07T06:12:14;15.40;;;12.20;;
55732;SDS011;41637;52.364;9.910;2023-04-07T06:14:42;15.00;;;12.10;;
55732;SDS011;41637;52.364;9.910;2023-04-07T06:17:08;15.90;;;11.60;;
55732;SDS011;41637;52.364;9.910;2023-04-07T06:19:35;15.80;;;12.00;;
55732;SDS011;41637;52.364;9.910;2023-04-07T06:22:02;14.50;;;11.10;;
55732;SDS011;41637;52.364;9.910;2023-04-07T06:24:28;16.20;;;10.80;;
55732;SDS011;41637;52.364;9.910;2023-04-07T06:26:55;14.40;;;10.70;;
55732;SDS011;41637;52.364;9.910;2023-04-07T06:29:22;13.80;;;11.30;;
55732;SDS011;41637;52.364;9.910;2023-04-07T06:31:48;15.20;;;10.90;;
55732;SDS011;41637;52.364;9.910;2023-04-07T06:34:15;13.60;;;10.70;;
55732;SDS011;41637;52.364;9.910;2023-04-07T06:36:42;13.00;;;10.80;;
55732;SDS011;41637;52.364;9.910;2023-04-07T06:39:09;13.30;;;10.80;;
55732;SDS011;41637;52.364;9.910;2023-04-07T06:41:35;14.50;;;10.90;;
55732;SDS011;41637;52.364;9.910;2023-04-07T06:44:04;12.70;;;10.10;;
55732;SDS011;41637;52.364;9.910;2023-04-07T06:46:31;12.90;;;10.30;;
55732;SDS011;41637;52.364;9.910;2023-04-07T06:48:57;13.30;;;10.20;;
55732;SDS011;41637;52.364;9.910;2023-04-07T06:51:24;12.40;;;10.00;;
55732;SDS011;41637;52.364;9.910;2023-04-07T06:53:51;12.60;;;9.70;;
55732;SDS011;41637;52.364;9.910;2023-04-07T06:56:18;12.10;;;10.40;;
55732;SDS011;41637;52.364;9.910;2023-04-07T06:58:46;15.40;;;10.70;;
55732;SDS011;41637;52.364;9.910;2023-04-07T07:01:12;12.90;;;10.10;;
55732;SDS011;41637;52.364;9.910;2023-04-07T07:03:39;15.00;;;10.50;;
55732;SDS011;41637;52.364;9.910;2023-04-07T07:06:06;14.40;;;10.50;;
55732;SDS011;41637;52.364;9.910;2023-04-07T07:08:33;12.00;;;9.80;;
55732;SDS011;41637;52.364;9.910;2023-04-07T07:10:59;12.90;;;9.80;;
55732;SDS011;41637;52.364;9.910;2023-04-07T07:13:26;11.90;;;10.20;;
55732;SDS011;41637;52.364;9.910;2023-04-07T07:15:53;13.20;;;10.50;;
55732;SDS011;41637;52.364;9.910;2023-04-07T07:18:20;11.90;;;9.00;;
55732;SDS011;41637;52.364;9.910;2023-04-07T07:20:47;11.30;;;9.20;;
55732;SDS011;41637;52.364;9.910;2023-04-07T07:23:14;13.00;;;9.60;;
55732;SDS011;41637;52.364;9.910;2023-04-07T07:25:40;12.30;;;9.80;;
55732;SDS011;41637;52.364;9.910;2023-04-07T07:28:07;12.50;;;9.40;;
55732;SDS011;41637;52.364;9.910;2023-04-07T07:30:34;11.90;;;9.20;;
55732;SDS011;41637;52.364;9.910;2023-04-07T07:33:01;12.20;;;9.40;;
55732;SDS011;41637;52.364;9.910;2023-04-07T07:35:28;11.50;;;8.90;;
55732;SDS011;41637;52.364;9.910;2023-04-07T07:37:54;10.50;;;8.80;;
55732;SDS011;41637;52.364;9.910;2023-04-07T07:40:21;11.10;;;9.10;;
55732;SDS011;41637;52.364;9.910;2023-04-07T07:42:47;10.60;;;8.70;;
55732;SDS011;41637;52.364;9.910;2023-04-07T07:45:14;10.20;;;8.60;;
55732;SDS011;41637;52.364;9.910;2023-04-07T07:47:42;9.90;;;8.20;;
55732;SDS011;41637;52.364;9.910;2023-04-07T07:50:09;10.80;;;8.10;;
55732;SDS011;41637;52.364;9.910;2023-04-07T07:52:36;10.90;;;8.30;;
55732;SDS011;41637;52.364;9.910;2023-04-07T07:55:02;12.10;;;8.80;;
55732;SDS011;41637;52.364;9.910;2023-04-07T07:57:29;10.30;;;7.80;;
55732;SDS011;41637;52.364;9.910;2023-04-07T07:59:57;9.70;;;8.10;;
55732;SDS011;41637;52.364;9.910;2023-04-07T08:02:23;10.80;;;8.40;;
55732;SDS011;41637;52.364;9.910;2023-04-07T08:04:56;10.00;;;8.40;;
55732;SDS011;41637;52.364;9.910;2023-04-07T08:07:23;9.50;;;8.00;;
55732;SDS011;41637;52.364;9.910;2023-04-07T08:09:50;9.40;;;7.60;;
55732;SDS011;41637;52.364;9.910;2023-04-07T08:12:17;10.10;;;7.80;;
55732;SDS011;41637;52.364;9.910;2023-04-07T08:14:44;9.20;;;7.40;;
55732;SDS011;41637;52.364;9.910;2023-04-07T08:17:11;9.20;;;7.60;;
55732;SDS011;41637;52.364;9.910;2023-04-07T08:19:38;10.00;;;7.30;;
55732;SDS011;41637;52.364;9.910;2023-04-07T08:22:05;11.00;;;7.20;;
55732;SDS011;41637;52.364;9.910;2023-04-07T08:24:31;11.10;;;7.30;;
55732;SDS011;41637;52.364;9.910;2023-04-07T08:26:58;9.50;;;7.40;;
55732;SDS011;41637;52.364;9.910;2023-04-07T08:29:24;8.40;;;6.60;;
55732;SDS011;41637;52.364;9.910;2023-04-07T08:31:51;9.60;;;7.00;;
55732;SDS011;41637;52.364;9.910;2023-04-07T08:34:18;8.50;;;6.70;;
55732;SDS011;41637;52.364;9.910;2023-04-07T08:36:46;11.30;;;7.10;;
55732;SDS011;41637;52.364;9.910;2023-04-07T08:39:13;9.90;;;6.90;;
55732;SDS011;41637;52.364;9.910;2023-04-07T08:41:40;8.90;;;6.60;;
55732;SDS011;41637;52.364;9.910;2023-04-07T08:44:07;8.70;;;6.10;;
55732;SDS011;41637;52.364;9.910;2023-04-07T08:46:38;10.70;;;7.00;;
55732;SDS011;41637;52.364;9.910;2023-04-07T08:49:07;9.40;;;7.00;;
55732;SDS011;41637;52.364;9.910;2023-04-07T08:51:36;8.40;;;6.30;;
55732;SDS011;41637;52.364;9.910;2023-04-07T08:54:05;7.80;;;6.00;;
55732;SDS011;41637;52.364;9.910;2023-04-07T08:56:38;9.40;;;6.40;;
55732;SDS011;41637;52.364;9.910;2023-04-07T08:59:06;10.10;;;6.10;;
55732;SDS011;41637;52.364;9.910;2023-04-07T09:01:35;8.20;;;5.00;;
55732;SDS011;41637;52.364;9.910;2023-04-07T09:04:03;7.30;;;5.10;;
55732;SDS011;41637;52.364;9.910;2023-04-07T09:06:30;7.70;;;5.00;;
55732;SDS011;41637;52.364;9.910;2023-04-07T09:08:58;7.60;;;4.80;;
55732;SDS011;41637;52.364;9.910;2023-04-07T09:11:25;8.10;;;5.80;;
55732;SDS011;41637;52.364;9.910;2023-04-07T09:13:53;8.80;;;5.80;;
55732;SDS011;41637;52.364;9.910;2023-04-07T09:16:21;8.40;;;5.70;;
55732;SDS011;41637;52.364;9.910;2023-04-07T09:18:49;8.80;;;6.00;;
55732;SDS011;41637;52.364;9.910;2023-04-07T09:21:15;7.60;;;5.40;;
55732;SDS011;41637;52.364;9.910;2023-04-07T09:23:42;8.70;;;5.70;;
55732;SDS011;41637;52.364;9.910;2023-04-07T09:28:59;8.80;;;5.70;;
55732;SDS011;41637;52.364;9.910;2023-04-07T09:31:47;8.20;;;5.50;;
55732;SDS011;41637;52.364;9.910;2023-04-07T09:34:22;8.70;;;6.20;;
55732;SDS011;41637;52.364;9.910;2023-04-07T09:36:53;8.10;;;5.80;;
55732;SDS011;41637;52.364;9.910;2023-04-07T09:39:20;8.30;;;6.00;;
55732;SDS011;41637;52.364;9.910;2023-04-07T09:41:46;8.50;;;6.20;;
55732;SDS011;41637;52.364;9.910;2023-04-07T09:44:14;8.40;;;5.80;;
55732;SDS011;41637;52.364;9.910;2023-04-07T09:46:51;9.90;;;6.60;;
55732;SDS011;41637;52.364;9.910;2023-04-07T09:49:19;9.20;;;6.40;;
55732;SDS011;41637;52.364;9.910;2023-04-07T09:51:59;8.80;;;6.50;;
55732;SDS011;41637;52.364;9.910;2023-04-07T09:54:33;8.10;;;5.70;;
55732;SDS011;41637;52.364;9.910;2023-04-07T09:57:04;8.40;;;6.50;;
55732;SDS011;41637;52.364;9.910;2023-04-07T09:59:44;8.50;;;6.20;;
55732;SDS011;41637;52.364;9.910;2023-04-07T10:02:10;9.50;;;6.40;;
55732;SDS011;41637;52.364;9.910;2023-04-07T10:04:37;8.60;;;6.60;;
55732;SDS011;41637;52.364;9.910;2023-04-07T10:07:06;9.60;;;6.70;;
55732;SDS011;41637;52.364;9.910;2023-04-07T10:09:32;10.00;;;6.70;;
55732;SDS011;41637;52.364;9.910;2023-04-07T10:11:59;10.00;;;6.60;;
55732;SDS011;41637;52.364;9.910;2023-04-07T10:14:30;9.10;;;7.00;;
55732;SDS011;41637;52.364;9.910;2023-04-07T10:16:58;9.30;;;6.70;;
55732;SDS011;41637;52.364;9.910;2023-04-07T10:19:25;10.70;;;6.90;;
55732;SDS011;41637;52.364;9.910;2023-04-07T10:21:57;8.40;;;6.70;;
55732;SDS011;41637;52.364;9.910;2023-04-07T10:27:00;8.60;;;5.50;;
55732;SDS011;41637;52.364;9.910;2023-04-07T10:29:36;8.00;;;5.10;;
55732;SDS011;41637;52.364;9.910;2023-04-07T10:32:07;8.10;;;5.60;;
55732;SDS011;41637;52.364;9.910;2023-04-07T10:34:54;8.40;;;5.90;;
55732;SDS011;41637;52.364;9.910;2023-04-07T10:37:24;8.10;;;6.20;;
55732;SDS011;41637;52.364;9.910;2023-04-07T10:40:26;9.80;;;6.30;;
55732;SDS011;41637;52.364;9.910;2023-04-07T10:42:44;7.70;;;6.00;;
55732;SDS011;41637;52.364;9.910;2023-04-07T10:45:12;8.90;;;6.20;;
55732;SDS011;41637;52.364;9.910;2023-04-07T10:50:24;8.00;;;5.90;;
55732;SDS011;41637;52.364;9.910;2023-04-07T10:53:07;9.40;;;5.90;;
55732;SDS011;41637;52.364;9.910;2023-04-07T10:55:39;8.50;;;6.00;;
55732;SDS011;41637;52.364;9.910;2023-04-07T10:58:11;8.30;;;6.50;;
55732;SDS011;41637;52.364;9.910;2023-04-07T11:03:26;7.90;;;5.50;;
55732;SDS011;41637;52.364;9.910;2023-04-07T11:06:03;9.40;;;6.30;;
55732;SDS011;41637;52.364;9.910;2023-04-07T11:08:34;7.70;;;5.50;;
55732;SDS011;41637;52.364;9.910;2023-04-07T11:11:04;10.20;;;6.00;;
55732;SDS011;41637;52.364;9.910;2023-04-07T11:13:45;8.90;;;6.10;;
55732;SDS011;41637;52.364;9.910;2023-04-07T11:16:17;7.50;;;5.70;;
55732;SDS011;41637;52.364;9.910;2023-04-07T11:18:45;8.90;;;5.90;;
55732;SDS011;41637;52.364;9.910;2023-04-07T11:21:16;9.20;;;6.40;;
55732;SDS011;41637;52.364;9.910;2023-04-07T11:23:44;9.60;;;6.10;;
55732;SDS011;41637;52.364;9.910;2023-04-07T11:26:13;10.60;;;6.20;;
55732;SDS011;41637;52.364;9.910;2023-04-07T11:28:48;10.10;;;6.20;;
55732;SDS011;41637;52.364;9.910;2023-04-07T11:31:25;8.00;;;6.00;;
55732;SDS011;41637;52.364;9.910;2023-04-07T11:33:55;9.90;;;6.00;;
55732;SDS011;41637;52.364;9.910;2023-04-07T11:39:00;9.40;;;6.60;;
55732;SDS011;41637;52.364;9.910;2023-04-07T11:41:28;9.50;;;6.40;;
55732;SDS011;41637;52.364;9.910;2023-04-07T11:44:08;9.60;;;6.60;;
55732;SDS011;41637;52.364;9.910;2023-04-07T11:46:50;9.20;;;6.50;;
55732;SDS011;41637;52.364;9.910;2023-04-07T11:49:22;9.10;;;6.30;;
55732;SDS011;41637;52.364;9.910;2023-04-07T11:51:56;8.80;;;6.50;;
55732;SDS011;41637;52.364;9.910;2023-04-07T11:54:24;9.80;;;6.70;;
55732;SDS011;41637;52.364;9.910;2023-04-07T11:56:51;10.30;;;6.70;;
55732;SDS011;41637;52.364;9.910;2023-04-07T11:59:24;9.10;;;5.90;;
55732;SDS011;41637;52.364;9.910;2023-04-07T12:01:51;8.60;;;6.10;;
55732;SDS011;41637;52.364;9.910;2023-04-07T12:04:22;9.90;;;6.80;;
55732;SDS011;41637;52.364;9.910;2023-04-07T12:06:49;8.70;;;5.90;;
55732;SDS011;41637;52.364;9.910;2023-04-07T12:09:27;8.00;;;5.90;;
55732;SDS011;41637;52.364;9.910;2023-04-07T12:11:55;8.30;;;6.10;;
55732;SDS011;41637;52.364;9.910;2023-04-07T12:14:23;7.00;;;5.50;;
55732;SDS011;41637;52.364;9.910;2023-04-07T12:16:51;7.80;;;5.50;;
55732;SDS011;41637;52.364;9.910;2023-04-07T12:19:18;8.30;;;5.30;;
55732;SDS011;41637;52.364;9.910;2023-04-07T12:21:45;7.80;;;5.50;;
55732;SDS011;41637;52.364;9.910;2023-04-07T12:24:12;7.30;;;5.30;;
55732;SDS011;41637;52.364;9.910;2023-04-07T12:26:38;8.10;;;5.30;;
55732;SDS011;41637;52.364;9.910;2023-04-07T12:29:05;8.10;;;5.30;;
55732;SDS011;41637;52.364;9.910;2023-04-07T12:31:32;7.10;;;5.20;;
55732;SDS011;41637;52.364;9.910;2023-04-07T12:34:00;7.00;;;5.20;;
55732;SDS011;41637;52.364;9.910;2023-04-07T12:36:28;7.40;;;4.70;;
55732;SDS011;41637;52.364;9.910;2023-04-07T12:38:55;6.60;;;5.00;;
55732;SDS011;41637;52.364;9.910;2023-04-07T12:41:23;6.30;;;4.70;;
55732;SDS011;41637;52.364;9.910;2023-04-07T12:43:50;7.00;;;4.80;;
55732;SDS011;41637;52.364;9.910;2023-04-07T12:46:18;7.10;;;4.20;;
55732;SDS011;41637;52.364;9.910;2023-04-07T12:48:46;5.60;;;4.30;;
55732;SDS011;41637;52.364;9.910;2023-04-07T12:51:13;6.70;;;4.20;;
55732;SDS011;41637;52.364;9.910;2023-04-07T12:53:40;4.80;;;3.90;;
55732;SDS011;41637;52.364;9.910;2023-04-07T12:56:07;5.80;;;4.10;;
55732;SDS011;41637;52.364;9.910;2023-04-07T12:58:33;6.20;;;4.00;;
55732;SDS011;41637;52.364;9.910;2023-04-07T13:01:00;5.20;;;4.60;;
55732;SDS011;41637;52.364;9.910;2023-04-07T13:03:26;7.50;;;5.10;;
55732;SDS011;41637;52.364;9.910;2023-04-07T13:05:54;5.50;;;4.70;;
55732;SDS011;41637;52.364;9.910;2023-04-07T13:08:21;6.10;;;4.00;;
55732;SDS011;41637;52.364;9.910;2023-04-07T13:10:47;5.70;;;4.00;;
55732;SDS011;41637;52.364;9.910;2023-04-07T13:13:14;4.80;;;4.10;;
55732;SDS011;41637;52.364;9.910;2023-04-07T13:15:41;5.10;;;4.20;;
55732;SDS011;41637;52.364;9.910;2023-04-07T13:18:07;4.90;;;4.10;;
55732;SDS011;41637;52.364;9.910;2023-04-07T13:20:34;5.20;;;3.70;;
55732;SDS011;41637;52.364;9.910;2023-04-07T13:23:01;5.30;;;3.90;;
55732;SDS011;41637;52.364;9.910;2023-04-07T13:25:35;5.50;;;3.50;;
55732;SDS011;41637;52.364;9.910;2023-04-07T13:28:02;5.20;;;3.90;;
55732;SDS011;41637;52.364;9.910;2023-04-07T13:30:29;4.40;;;3.30;;
55732;SDS011;41637;52.364;9.910;2023-04-07T13:32:56;5.90;;;3.60;;
55732;SDS011;41637;52.364;9.910;2023-04-07T13:35:23;5.50;;;4.40;;
55732;SDS011;41637;52.364;9.910;2023-04-07T13:37:49;4.60;;;3.80;;
55732;SDS011;41637;52.364;9.910;2023-04-07T13:40:16;4.30;;;3.30;;
55732;SDS011;41637;52.364;9.910;2023-04-07T13:42:43;4.20;;;3.70;;
55732;SDS011;41637;52.364;9.910;2023-04-07T13:45:09;5.50;;;3.90;;
55732;SDS011;41637;52.364;9.910;2023-04-07T13:47:36;3.80;;;3.10;;
55732;SDS011;41637;52.364;9.910;2023-04-07T13:50:03;5.00;;;3.50;;
55732;SDS011;41637;52.364;9.910;2023-04-07T13:52:31;4.10;;;3.20;;
55732;SDS011;41637;52.364;9.910;2023-04-07T13:55:00;4.80;;;3.50;;
55732;SDS011;41637;52.364;9.910;2023-04-07T13:57:29;4.60;;;3.30;;
55732;SDS011;41637;52.364;9.910;2023-04-07T13:59:55;4.30;;;3.20;;
55732;SDS011;41637;52.364;9.910;2023-04-07T14:02:22;4.20;;;3.20;;
55732;SDS011;41637;52.364;9.910;2023-04-07T14:04:50;4.80;;;3.10;;
55732;SDS011;41637;52.364;9.910;2023-04-07T14:07:16;4.20;;;3.30;;
55732;SDS011;41637;52.364;9.910;2023-04-07T14:09:43;6.40;;;4.00;;
55732;SDS011;41637;52.364;9.910;2023-04-07T14:12:11;4.70;;;3.70;;
55732;SDS011;41637;52.364;9.910;2023-04-07T14:14:38;5.40;;;4.80;;
55732;SDS011;41637;52.364;9.910;2023-04-07T14:17:04;3.90;;;3.50;;
55732;SDS011;41637;52.364;9.910;2023-04-07T14:19:31;4.30;;;3.20;;
55732;SDS011;41637;52.364;9.910;2023-04-07T14:22:01;3.90;;;2.90;;
55732;SDS011;41637;52.364;9.910;2023-04-07T14:24:27;3.80;;;3.10;;
55732;SDS011;41637;52.364;9.910;2023-04-07T14:26:54;3.90;;;3.00;;
55732;SDS011;41637;52.364;9.910;2023-04-07T14:29:21;4.10;;;3.00;;
55732;SDS011;41637;52.364;9.910;2023-04-07T14:31:48;4.20;;;3.00;;
55732;SDS011;41637;52.364;9.910;2023-04-07T14:34:16;3.60;;;3.10;;
55732;SDS011;41637;52.364;9.910;2023-04-07T14:36:51;3.70;;;3.00;;
55732;SDS011;41637;52.364;9.910;2023-04-07T14:39:19;4.70;;;3.40;;
55732;SDS011;41637;52.364;9.910;2023-04-07T14:41:46;5.10;;;3.00;;
55732;SDS011;41637;52.364;9.910;2023-04-07T14:44:13;4.20;;;3.10;;
55732;SDS011;41637;52.364;9.910;2023-04-07T14:46:39;3.60;;;2.80;;
55732;SDS011;41637;52.364;9.910;2023-04-07T14:49:08;3.80;;;3.00;;
55732;SDS011;41637;52.364;9.910;2023-04-07T14:51:34;3.70;;;2.70;;
55732;SDS011;41637;52.364;9.910;2023-04-07T14:54:01;3.50;;;2.70;;
55732;SDS011;41637;52.364;9.910;2023-04-07T14:56:28;3.70;;;3.00;;
55732;SDS011;41637;52.364;9.910;2023-04-07T14:58:55;3.20;;;2.40;;
55732;SDS011;41637;52.364;9.910;2023-04-07T15:01:22;3.50;;;2.60;;